sensor_id;sensor_type;location;lat;lon;timestamp;P1;durP1;ratioP1;P2;durP2;ratioP2
9094;SDS011;4583;49.796;9.902;2023-07-24T00:02:39;5.43;;;3.50;;
9094;SDS011;4583;49.796;9.902;2023-07-24T00:12:41;6.33;;;3.60;;
9094;SDS011;4583;49.796;9.902;2023-07-24T00:22:43;4.90;;;3.77;;
9094;SDS011;4583;49.796;9.902;2023-07-24T00:32:44;5.70;;;3.93;;
9094;SDS011;4583;49.796;9.902;2023-07-24T00:42:47;5.80;;;3.90;;
9094;SDS011;4583;49.796;9.902;2023-07-24T00:52:49;5.80;;;3.80;;
9094;SDS011;4583;49.796;9.902;2023-07-24T01:02:51;7.63;;;4.53;;
9094;SDS011;4583;49.796;9.902;2023-07-24T01:12:58;7.07;;;4.30;;
9094;SDS011;4583;49.796;9.902;2023-07-24T01:33:27;7.00;;;4.00;;
9094;SDS011;4583;49.796;9.902;2023-07-24T01:43:29;8.23;;;4.33;;
9094;SDS011;4583;49.796;9.902;2023-07-24T01:53:33;6.00;;;4.17;;
9094;SDS011;4583;49.796;9.902;2023-07-24T02:03:34;10.77;;;4.77;;
9094;SDS011;4583;49.796;9.902;2023-07-24T02:13:36;7.40;;;4.80;;
9094;SDS011;4583;49.796;9.902;2023-07-24T02:23:38;9.83;;;4.87;;
9094;SDS011;4583;49.796;9.902;2023-07-24T02:33:40;9.30;;;4.47;;
9094;SDS011;4583;49.796;9.902;2023-07-24T02:43:41;7.77;;;4.60;;
9094;SDS011;4583;49.796;9.902;2023-07-24T02:53:43;9.03;;;5.13;;
9094;SDS011;4583;49.796;9.902;2023-07-24T03:03:45;7.87;;;5.30;;
9094;SDS011;4583;49.796;9.902;2023-07-24T03:13:46;8.53;;;5.53;;
9094;SDS011;4583;49.796;9.902;2023-07-24T03:23:48;9.10;;;5.53;;
9094;SDS011;4583;49.796;9.902;2023-07-24T03:33:50;6.33;;;4.93;;
9094;SDS011;4583;49.796;9.902;2023-07-24T03:43:51;13.00;;;6.00;;
9094;SDS011;4583;49.796;9.902;2023-07-24T03:53:53;7.13;;;5.30;;
9094;SDS011;4583;49.796;9.902;2023-07-24T04:03:55;8.97;;;5.27;;
9094;SDS011;4583;49.796;9.902;2023-07-24T04:13:57;7.30;;;5.30;;
9094;SDS011;4583;49.796;9.902;2023-07-24T04:23:58;8.60;;;5.53;;
9094;SDS011;4583;49.796;9.902;2023-07-24T04:34:00;7.33;;;5.40;;
9094;SDS011;4583;49.796;9.902;2023-07-24T04:44:02;9.03;;;5.80;;
9094;SDS011;4583;49.796;9.902;2023-07-24T04:54:04;9.93;;;5.97;;
9094;SDS011;4583;49.796;9.902;2023-07-24T05:04:05;9.07;;;6.33;;
9094;SDS011;4583;49.796;9.902;2023-07-24T05:14:07;7.90;;;5.77;;
9094;SDS011;4583;49.796;9.902;2023-07-24T05:24:09;13.13;;;5.87;;
9094;SDS011;4583;49.796;9.902;2023-07-24T05:34:10;10.20;;;5.90;;
9094;SDS011;4583;49.796;9.902;2023-07-24T05:44:12;9.47;;;6.10;;
9094;SDS011;4583;49.796;9.902;2023-07-24T05:54:14;9.30;;;6.57;;
9094;SDS011;4583;49.796;9.902;2023-07-24T06:04:15;8.67;;;6.13;;
9094;SDS011;4583;49.796;9.902;2023-07-24T06:14:17;9.50;;;6.97;;
9094;SDS011;4583;49.796;9.902;2023-07-24T06:24:19;9.23;;;6.53;;
9094;SDS011;4583;49.796;9.902;2023-07-24T06:34:21;10.10;;;6.23;;
9094;SDS011;4583;49.796;9.902;2023-07-24T06:44:23;11.67;;;6.50;;
9094;SDS011;4583;49.796;9.902;2023-07-24T06:54:25;11.07;;;6.80;;
9094;SDS011;4583;49.796;9.902;2023-07-24T07:04:27;14.93;;;8.93;;
9094;SDS011;4583;49.796;9.902;2023-07-24T07:14:29;14.00;;;6.90;;
9094;SDS011;4583;49.796;9.902;2023-07-24T07:24:30;13.53;;;6.47;;
9094;SDS011;4583;49.796;9.902;2023-07-24T07:34:32;19.70;;;6.30;;
9094;SDS011;4583;49.796;9.902;2023-07-24T07:44:35;18.30;;;7.10;;
9094;SDS011;4583;49.796;9.902;2023-07-24T07:54:37;10.97;;;6.03;;
9094;SDS011;4583;49.796;9.902;2023-07-24T08:04:39;15.47;;;7.20;;
9094;SDS011;4583;49.796;9.902;2023-07-24T08:14:40;21.87;;;6.53;;
9094;SDS011;4583;49.796;9.902;2023-07-24T08:24:42;15.10;;;6.67;;
9094;SDS011;4583;49.796;9.902;2023-07-24T08:34:46;11.97;;;8.70;;
9094;SDS011;4583;49.796;9.902;2023-07-24T08:44:48;8.97;;;6.80;;
9094;SDS011;4583;49.796;9.902;2023-07-24T08:54:50;12.10;;;6.57;;
9094;SDS011;4583;49.796;9.902;2023-07-24T09:04:52;9.87;;;6.00;;
9094;SDS011;4583;49.796;9.902;2023-07-24T09:15:00;11.43;;;7.87;;
9094;SDS011;4583;49.796;9.902;2023-07-24T09:25:04;10.17;;;6.23;;
9094;SDS011;4583;49.796;9.902;2023-07-24T09:35:18;9.33;;;6.43;;
9094;SDS011;4583;49.796;9.902;2023-07-24T09:45:21;11.53;;;6.47;;
9094;SDS011;4583;49.796;9.902;2023-07-24T09:55:25;8.97;;;6.53;;
9094;SDS011;4583;49.796;9.902;2023-07-24T10:05:33;11.53;;;6.60;;
9094;SDS011;4583;49.796;9.902;2023-07-24T10:15:35;8.70;;;6.20;;
9094;SDS011;4583;49.796;9.902;2023-07-24T10:25:39;14.30;;;7.10;;
9094;SDS011;4583;49.796;9.902;2023-07-24T10:35:45;14.33;;;7.10;;
9094;SDS011;4583;49.796;9.902;2023-07-24T10:45:53;12.30;;;8.43;;
9094;SDS011;4583;49.796;9.902;2023-07-24T10:55:55;8.50;;;6.10;;
9094;SDS011;4583;49.796;9.902;2023-07-24T11:05:57;9.43;;;5.80;;
9094;SDS011;4583;49.796;9.902;2023-07-24T11:16:06;13.20;;;6.37;;
9094;SDS011;4583;49.796;9.902;2023-07-24T11:26:08;8.77;;;6.33;;
9094;SDS011;4583;49.796;9.902;2023-07-24T11:36:10;11.07;;;5.97;;
9094;SDS011;4583;49.796;9.902;2023-07-24T11:46:21;7.63;;;6.30;;
9094;SDS011;4583;49.796;9.902;2023-07-24T11:56:24;8.57;;;6.17;;
9094;SDS011;4583;49.796;9.902;2023-07-24T12:06:26;11.87;;;6.30;;
9094;SDS011;4583;49.796;9.902;2023-07-24T12:16:33;10.23;;;5.77;;
9094;SDS011;4583;49.796;9.902;2023-07-24T12:26:35;28.03;;;7.33;;
9094;SDS011;4583;49.796;9.902;2023-07-24T12:36:37;8.83;;;5.93;;
9094;SDS011;4583;49.796;9.902;2023-07-24T12:46:38;22.33;;;8.17;;
9094;SDS011;4583;49.796;9.902;2023-07-24T12:56:40;7.33;;;5.97;;
9094;SDS011;4583;49.796;9.902;2023-07-24T13:06:42;51.23;;;8.20;;
9094;SDS011;4583;49.796;9.902;2023-07-24T13:16:44;8.23;;;6.10;;
9094;SDS011;4583;49.796;9.902;2023-07-24T13:26:46;11.77;;;6.30;;
9094;SDS011;4583;49.796;9.902;2023-07-24T13:36:48;9.33;;;6.17;;
9094;SDS011;4583;49.796;9.902;2023-07-24T13:46:50;12.80;;;5.90;;
9094;SDS011;4583;49.796;9.902;2023-07-24T13:56:52;7.70;;;5.90;;
9094;SDS011;4583;49.796;9.902;2023-07-24T14:06:53;8.57;;;6.07;;
9094;SDS011;4583;49.796;9.902;2023-07-24T14:16:55;14.60;;;7.17;;
9094;SDS011;4583;49.796;9.902;2023-07-24T14:26:57;9.83;;;6.30;;
9094;SDS011;4583;49.796;9.902;2023-07-24T14:36:59;11.77;;;5.90;;
9094;SDS011;4583;49.796;9.902;2023-07-24T14:47:01;8.25;;;5.57;;
9094;SDS011;4583;49.796;9.902;2023-07-24T14:57:03;7.85;;;5.57;;
9094;SDS011;4583;49.796;9.902;2023-07-24T15:07:24;10.07;;;6.90;;
9094;SDS011;4583;49.796;9.902;2023-07-24T15:17:26;8.23;;;5.90;;
9094;SDS011;4583;49.796;9.902;2023-07-24T15:27:28;7.50;;;5.97;;
9094;SDS011;4583;49.796;9.902;2023-07-24T15:37:29;12.40;;;7.30;;
9094;SDS011;4583;49.796;9.902;2023-07-24T15:47:31;10.20;;;6.87;;
9094;SDS011;4583;49.796;9.902;2023-07-24T15:57:33;8.77;;;6.43;;
9094;SDS011;4583;49.796;9.902;2023-07-24T16:07:35;8.33;;;6.20;;
9094;SDS011;4583;49.796;9.902;2023-07-24T16:17:37;10.17;;;6.50;;
9094;SDS011;4583;49.796;9.902;2023-07-24T16:27:39;10.80;;;8.43;;
9094;SDS011;4583;49.796;9.902;2023-07-24T16:37:40;9.33;;;6.87;;
9094;SDS011;4583;49.796;9.902;2023-07-24T16:47:42;12.23;;;6.20;;
9094;SDS011;4583;49.796;9.902;2023-07-24T16:57:44;9.13;;;5.90;;
9094;SDS011;4583;49.796;9.902;2023-07-24T17:07:46;7.30;;;5.53;;
9094;SDS011;4583;49.796;9.902;2023-07-24T17:17:48;9.73;;;4.82;;
9094;SDS011;4583;49.796;9.902;2023-07-24T17:27:49;6.73;;;5.63;;
9094;SDS011;4583;49.796;9.902;2023-07-24T17:37:51;5.80;;;4.27;;
9094;SDS011;4583;49.796;9.902;2023-07-24T17:47:53;8.70;;;3.00;;
9094;SDS011;4583;49.796;9.902;2023-07-24T17:57:54;8.67;;;2.93;;
9094;SDS011;4583;49.796;9.902;2023-07-24T18:07:56;5.13;;;3.50;;
9094;SDS011;4583;49.796;9.902;2023-07-24T18:17:58;4.97;;;2.57;;
9094;SDS011;4583;49.796;9.902;2023-07-24T18:28:00;5.43;;;3.17;;
9094;SDS011;4583;49.796;9.902;2023-07-24T18:38:01;6.83;;;2.93;;
9094;SDS011;4583;49.796;9.902;2023-07-24T18:48:03;5.70;;;2.53;;
9094;SDS011;4583;49.796;9.902;2023-07-24T18:58:05;3.40;;;2.13;;
9094;SDS011;4583;49.796;9.902;2023-07-24T19:08:07;19.13;;;3.13;;
9094;SDS011;4583;49.796;9.902;2023-07-24T19:18:09;3.33;;;2.33;;
9094;SDS011;4583;49.796;9.902;2023-07-24T19:28:10;3.03;;;2.40;;
9094;SDS011;4583;49.796;9.902;2023-07-24T19:38:12;4.67;;;2.50;;
9094;SDS011;4583;49.796;9.902;2023-07-24T19:48:14;3.73;;;2.20;;
9094;SDS011;4583;49.796;9.902;2023-07-24T19:58:17;3.07;;;2.40;;
9094;SDS011;4583;49.796;9.902;2023-07-24T20:08:34;4.70;;;2.13;;
9094;SDS011;4583;49.796;9.902;2023-07-24T20:18:36;4.70;;;1.90;;
9094;SDS011;4583;49.796;9.902;2023-07-24T20:28:38;6.07;;;1.90;;
9094;SDS011;4583;49.796;9.902;2023-07-24T20:38:39;2.67;;;1.93;;
9094;SDS011;4583;49.796;9.902;2023-07-24T20:48:42;4.40;;;2.20;;
9094;SDS011;4583;49.796;9.902;2023-07-24T20:58:44;3.43;;;2.07;;
9094;SDS011;4583;49.796;9.902;2023-07-24T21:08:45;3.13;;;1.87;;
9094;SDS011;4583;49.796;9.902;2023-07-24T21:18:47;2.43;;;1.93;;
9094;SDS011;4583;49.796;9.902;2023-07-24T21:28:49;2.30;;;2.00;;
9094;SDS011;4583;49.796;9.902;2023-07-24T21:38:51;3.37;;;1.80;;
9094;SDS011;4583;49.796;9.902;2023-07-24T21:48:53;3.37;;;1.93;;
9094;SDS011;4583;49.796;9.902;2023-07-24T21:58:55;1.90;;;1.70;;
9094;SDS011;4583;49.796;9.902;2023-07-24T22:08:57;2.77;;;2.00;;
9094;SDS011;4583;49.796;9.902;2023-07-24T22:18:58;2.60;;;1.70;;
9094;SDS011;4583;49.796;9.902;2023-07-24T22:29:01;2.83;;;1.97;;
9094;SDS011;4583;49.796;9.902;2023-07-24T22:39:03;4.30;;;1.63;;
9094;SDS011;4583;49.796;9.902;2023-07-24T22:49:07;2.03;;;1.77;;
9094;SDS011;4583;49.796;9.902;2023-07-24T23:09:26;2.60;;;1.77;;
9094;SDS011;4583;49.796;9.902;2023-07-24T23:19:28;3.53;;;1.90;;
9094;SDS011;4583;49.796;9.902;2023-07-24T23:29:30;3.03;;;1.73;;
9094;SDS011;4583;49.796;9.902;2023-07-24T23:39:31;2.27;;;1.90;;
9094;SDS011;4583;49.796;9.902;2023-07-24T23:49:33;3.43;;;1.90;;
9094;SDS011;4583;49.796;9.902;2023-07-24T23:59:35;3.90;;;1.80;;
